Saturn, Texas
Current Conditions -  °F | °C
As of 12:35 AM on Thursday 27 Nov 2014 (Local Time) from KT20 Reporting Station
Clear Clear  
Wind Chill:   Ceiling: Unl
Heat Index:   Visibility: 10mi
Dew Point:   Wind: 3mph
Humidity: 73%   Direction: 10°N
Pressure: 30.34"   Gusts: NA
Location:  29.6608°N, 97.4854°W
Report Text: KT20 270635Z AUTO 01003KT 10SM CLR 09/04 A3034 RMK AO2 T00870042
Loading
Personal Weather Stations






























Interactive Weather Map New forecast layout! Learn more

10-Day Weather Forecast

Advertisements
Track Severe Weather on mobile